Time;durP1;ratioP1;P1;durP2;ratioP2;P2;SDS_P1;SDS_P2;PMS_P1;PMS_P2;Temp;Humidity;BMP_temperature;BMP_pressure;BME280_temperature;BME280_humidity;BME280_pressure;Samples;Min_cycle;Max_cycle;Signal;HPM_P1;HPM_P2
2022/06/07 00:00:39;;;;;;;10.85;4.50;;;13.60;77.90;;;;;;5003293;28;20045;-76
2022/06/07 00:03:05;;;;;;;6.72;4.25;;;13.60;78.20;;;;;;4999142;28;20069;-75
2022/06/07 00:05:30;;;;;;;8.68;4.72;;;13.60;78.40;;;;;;4999588;28;20357;-77
2022/06/07 00:07:56;;;;;;;9.30;4.80;;;13.60;78.50;;;;;;5004005;28;20832;-76
2022/06/07 00:10:24;;;;;;;9.35;5.13;;;13.60;78.50;;;;;;5010851;28;20038;-76
2022/06/07 00:12:50;;;;;;;10.48;4.88;;;13.60;78.50;;;;;;5009188;28;20030;-76
2022/06/07 00:15:17;;;;;;;10.20;5.28;;;13.60;78.70;;;;;;5012348;28;20041;-76
2022/06/07 00:17:43;;;;;;;8.65;4.65;;;13.50;78.80;;;;;;5001875;28;20121;-76
2022/06/07 00:20:09;;;;;;;9.48;5.10;;;13.50;78.80;;;;;;5003015;28;20048;-76
2022/06/07 00:22:35;;;;;;;10.23;5.03;;;13.50;79.00;;;;;;5010201;28;20041;-76
2022/06/07 00:25:03;;;;;;;9.95;5.05;;;13.40;79.10;;;;;;5005203;28;20108;-77
2022/06/07 00:27:28;;;;;;;11.10;5.00;;;13.40;79.30;;;;;;5003801;28;20045;-77
2022/06/07 00:29:54;;;;;;;9.30;4.32;;;13.50;79.40;;;;;;5004550;28;20047;-76
2022/06/07 00:32:22;;;;;;;12.52;5.03;;;13.50;79.30;;;;;;5008557;28;20076;-76
2022/06/07 00:34:47;;;;;;;9.13;5.18;;;13.40;79.50;;;;;;5012741;28;20038;-75
2022/06/07 00:37:14;;;;;;;11.43;5.43;;;13.40;79.70;;;;;;4998810;28;20049;-75
2022/06/07 00:39:40;;;;;;;10.23;5.38;;;13.40;79.70;;;;;;5013316;28;20488;-76
2022/06/07 00:42:06;;;;;;;9.93;5.00;;;13.40;79.70;;;;;;5009390;28;20037;-75
2022/06/07 00:44:34;;;;;;;8.98;5.25;;;13.40;79.90;;;;;;5007729;28;20029;-75
2022/06/07 00:47:18;;;;;;;10.68;5.47;;;13.30;80.00;;;;;;5009834;28;20421;-75
2022/06/07 00:50:14;;;;;;;13.10;4.90;;;13.40;79.90;;;;;;4998598;28;20539;-76
2022/06/07 00:52:40;;;;;;;8.98;5.00;;;13.40;80.00;;;;;;4998540;28;20062;-76
2022/06/07 00:55:08;;;;;;;11.27;4.95;;;13.30;80.10;;;;;;5006208;28;20469;-76
2022/06/07 00:57:34;;;;;;;9.23;5.80;;;13.30;80.10;;;;;;5007126;28;20503;-75
2022/06/07 01:00:00;;;;;;;10.77;5.60;;;13.40;80.20;;;;;;5003253;28;20121;-75
2022/06/07 01:02:26;;;;;;;11.20;5.97;;;13.30;80.10;;;;;;5004901;28;20113;-76
2022/06/07 01:04:52;;;;;;;10.95;5.90;;;13.30;80.20;;;;;;5009915;28;20049;-76
2022/06/07 01:12:48;;;;;;;12.15;6.53;;;13.10;80.60;;;;;;5014625;28;20496;-76
2022/06/07 01:15:14;;;;;;;8.85;5.80;;;13.10;80.80;;;;;;5004011;28;20591;-76
2022/06/07 01:17:39;;;;;;;11.13;5.97;;;13.10;80.90;;;;;;5003259;28;20113;-77
2022/06/07 01:20:06;;;;;;;10.10;5.68;;;13.10;81.00;;;;;;5006272;28;20034;-77
2022/06/07 01:22:33;;;;;;;11.07;6.10;;;13.10;81.10;;;;;;5006827;28;20027;-76
2022/06/07 01:24:59;;;;;;;12.02;7.20;;;13.10;81.10;;;;;;5003504;28;20065;-76
2022/06/07 01:27:25;;;;;;;9.32;5.95;;;13.10;81.10;;;;;;5008495;28;20038;-75
2022/06/07 01:29:51;;;;;;;10.48;5.47;;;13.10;81.10;;;;;;5008277;28;20294;-76
2022/06/07 01:32:16;;;;;;;10.43;6.28;;;13.00;81.20;;;;;;5010928;28;20128;-76
2022/06/07 01:34:44;;;;;;;10.68;5.85;;;13.00;81.40;;;;;;5006187;28;20186;-76
2022/06/07 01:37:12;;;;;;;11.95;5.65;;;13.00;81.50;;;;;;5005535;28;20041;-76
2022/06/07 01:42:21;;;;;;;11.10;5.67;;;13.00;81.70;;;;;;5001111;28;20056;-75
2022/06/07 01:44:48;;;;;;;13.70;6.38;;;12.90;81.80;;;;;;5006736;28;20034;-77
2022/06/07 01:47:25;;;;;;;11.13;6.22;;;12.90;81.80;;;;;;5006784;28;20033;-77
2022/06/07 01:49:51;;;;;;;11.18;6.65;;;12.90;81.80;;;;;;5009003;28;20045;-77
2022/06/07 01:52:19;;;;;;;11.20;6.13;;;12.90;81.90;;;;;;5028122;28;20038;-77
2022/06/07 01:54:45;;;;;;;9.40;6.15;;;12.80;81.90;;;;;;5015064;28;20493;-76
2022/06/07 01:57:12;;;;;;;11.77;6.68;;;12.70;82.00;;;;;;5007105;28;20041;-76
2022/06/07 01:59:38;;;;;;;11.90;7.07;;;12.70;82.30;;;;;;5008295;28;20130;-76
2022/06/07 02:02:05;;;;;;;11.05;6.63;;;12.70;82.40;;;;;;5008703;28;20065;-77
2022/06/07 02:04:31;;;;;;;14.05;7.85;;;12.70;82.50;;;;;;5018506;28;20068;-76
2022/06/07 02:06:57;;;;;;;10.63;7.10;;;12.60;82.80;;;;;;5015847;28;20045;-76
2022/06/07 02:09:23;;;;;;;10.77;7.43;;;12.60;82.70;;;;;;5013830;28;20401;-76
2022/06/07 02:11:49;;;;;;;13.52;8.07;;;12.60;82.90;;;;;;5018695;28;20034;-77
2022/06/07 02:14:15;;;;;;;12.20;7.25;;;12.60;83.20;;;;;;5016001;28;20049;-77
2022/06/07 02:16:41;;;;;;;12.63;7.28;;;12.60;83.20;;;;;;5016822;28;20036;-77
2022/06/07 02:19:07;;;;;;;10.63;7.22;;;12.60;83.20;;;;;;5011639;28;20147;-77
2022/06/07 02:21:33;;;;;;;13.95;8.10;;;12.60;83.30;;;;;;5008841;28;20042;-75
2022/06/07 02:23:59;;;;;;;13.52;8.00;;;12.60;83.40;;;;;;5013106;28;20040;-75
2022/06/07 02:26:35;;;;;;;9.80;7.18;;;12.60;83.50;;;;;;5010494;28;20443;-76
2022/06/07 02:29:05;;;;;;;11.32;7.72;;;12.60;83.60;;;;;;5008632;28;20403;-76
2022/06/07 02:31:33;;;;;;;11.63;7.90;;;12.60;83.60;;;;;;5006754;28;20486;-76
2022/06/07 02:34:01;;;;;;;11.77;7.75;;;12.60;83.70;;;;;;5011073;28;20045;-76
2022/06/07 02:36:31;;;;;;;13.05;8.68;;;12.60;83.70;;;;;;5009280;28;20034;-76
2022/06/07 02:38:57;;;;;;;11.10;7.32;;;12.50;83.70;;;;;;5006495;28;20041;-76
2022/06/07 02:41:26;;;;;;;10.23;7.22;;;12.50;83.70;;;;;;5008257;28;20046;-75
2022/06/07 02:43:53;;;;;;;14.18;8.05;;;12.50;83.80;;;;;;5005516;28;20095;-76
2022/06/07 02:46:18;;;;;;;13.75;7.75;;;12.40;84.00;;;;;;5006240;28;20057;-76
2022/06/07 02:48:44;;;;;;;14.88;7.80;;;12.40;84.00;;;;;;5003903;28;20037;-76
2022/06/07 02:51:10;;;;;;;12.52;7.63;;;12.50;84.20;;;;;;4997122;28;20049;-76
2022/06/07 02:53:36;;;;;;;13.02;7.63;;;12.50;84.20;;;;;;5003892;28;20515;-76
2022/06/07 02:56:03;;;;;;;9.82;7.03;;;12.50;84.40;;;;;;5003177;28;20599;-77
2022/06/07 02:58:30;;;;;;;10.68;7.30;;;12.50;84.30;;;;;;5018792;28;20100;-75
2022/06/07 03:00:58;;;;;;;10.75;7.80;;;12.50;84.30;;;;;;5021830;28;20050;-76
2022/06/07 03:03:24;;;;;;;12.43;7.70;;;12.50;84.30;;;;;;5001874;28;20034;-76
2022/06/07 03:05:50;;;;;;;12.20;8.00;;;12.50;84.40;;;;;;5002816;28;20103;-76
2022/06/07 03:08:18;;;;;;;11.32;7.00;;;12.50;84.40;;;;;;5010607;28;20413;-77
2022/06/07 03:10:45;;;;;;;11.70;7.40;;;12.50;84.30;;;;;;5007378;28;20490;-76
2022/06/07 03:13:12;;;;;;;13.57;6.95;;;12.50;84.30;;;;;;5007676;28;20647;-75
2022/06/07 03:15:39;;;;;;;9.57;6.70;;;12.50;84.40;;;;;;5006940;28;20805;-76
2022/06/07 03:18:05;;;;;;;15.38;8.20;;;12.50;84.40;;;;;;5014898;28;20401;-76
2022/06/07 03:20:31;;;;;;;10.05;6.47;;;12.50;84.30;;;;;;5013280;28;20042;-76
2022/06/07 03:22:56;;;;;;;9.95;6.82;;;12.40;84.30;;;;;;5007429;28;20591;-76
2022/06/07 03:25:24;;;;;;;9.20;6.20;;;12.40;84.40;;;;;;5004624;28;20086;-75
2022/06/07 03:27:50;;;;;;;11.05;6.90;;;12.40;84.40;;;;;;5002673;28;20036;-76
2022/06/07 03:30:16;;;;;;;10.75;7.53;;;12.40;84.50;;;;;;5040443;28;20045;-75
2022/06/07 03:32:44;;;;;;;12.23;7.13;;;12.40;84.40;;;;;;5014467;28;20122;-76
2022/06/07 03:35:11;;;;;;;11.23;7.10;;;12.40;84.50;;;;;;5010473;28;20281;-76
2022/06/07 03:37:38;;;;;;;13.35;7.80;;;12.40;84.30;;;;;;5008811;28;20497;-76
2022/06/07 03:40:14;;;;;;;12.27;7.60;;;12.40;84.40;;;;;;5008836;28;20045;-75
2022/06/07 03:42:40;;;;;;;11.90;7.55;;;12.50;84.50;;;;;;5000808;28;20173;-76
2022/06/07 03:45:07;;;;;;;13.50;7.82;;;12.50;84.50;;;;;;5009905;28;20442;-75
2022/06/07 03:47:34;;;;;;;12.57;8.10;;;12.40;84.40;;;;;;5007618;28;20034;-74
2022/06/07 03:49:59;;;;;;;11.35;7.60;;;12.50;84.40;;;;;;5014228;28;20388;-75
2022/06/07 03:52:25;;;;;;;11.18;7.65;;;12.50;84.40;;;;;;5007682;28;20038;-75
2022/06/07 03:54:51;;;;;;;10.25;7.47;;;12.50;84.30;;;;;;5010184;28;20478;-75
2022/06/07 03:57:16;;;;;;;11.93;8.23;;;12.60;84.40;;;;;;5007153;28;20046;-75
2022/06/07 03:59:43;;;;;;;11.05;7.13;;;12.60;84.30;;;;;;5011113;28;20056;-75
2022/06/07 04:02:09;;;;;;;12.57;8.50;;;12.60;84.30;;;;;;5007987;28;20038;-75
2022/06/07 04:04:36;;;;;;;11.85;7.38;;;12.60;84.20;;;;;;5012934;28;20131;-75
2022/06/07 04:09:47;;;;;;;10.95;7.72;;;12.80;84.10;;;;;;5005931;28;20079;-75
2022/06/07 04:12:15;;;;;;;11.07;7.00;;;12.90;83.90;;;;;;5005270;28;20481;-75
2022/06/07 04:14:44;;;;;;;10.60;8.07;;;12.90;83.80;;;;;;5008934;28;20489;-76
2022/06/07 04:17:11;;;;;;;11.40;8.20;;;13.00;83.80;;;;;;5009279;28;20065;-76
2022/06/07 04:19:38;;;;;;;9.45;7.47;;;13.10;83.70;;;;;;5002502;28;20520;-76
2022/06/07 04:22:05;;;;;;;11.80;6.93;;;13.20;83.60;;;;;;5003002;28;20520;-75
2022/06/07 04:24:31;;;;;;;12.55;7.38;;;13.30;83.50;;;;;;5002714;28;20525;-75
2022/06/07 04:26:57;;;;;;;11.50;7.20;;;13.40;83.30;;;;;;5002497;28;20108;-75
2022/06/07 04:29:24;;;;;;;12.98;8.35;;;13.60;83.10;;;;;;5002279;28;20535;-76
2022/06/07 04:31:50;;;;;;;15.95;8.30;;;13.70;82.90;;;;;;5006468;28;20026;-75
2022/06/07 04:34:18;;;;;;;13.13;8.05;;;13.80;82.70;;;;;;5007803;28;20120;-76
2022/06/07 04:36:44;;;;;;;12.57;7.72;;;13.90;82.50;;;;;;5003887;28;20140;-76
2022/06/07 04:39:11;;;;;;;10.88;7.30;;;14.00;82.20;;;;;;5001315;28;20443;-75
2022/06/07 04:41:37;;;;;;;10.68;7.53;;;14.00;81.90;;;;;;5006334;28;20045;-76
2022/06/07 04:44:03;;;;;;;10.60;6.78;;;14.10;81.90;;;;;;5003727;28;20394;-75
2022/06/07 04:46:29;;;;;;;9.88;7.95;;;14.20;82.00;;;;;;5011578;28;20474;-76
2022/06/07 04:48:55;;;;;;;10.35;7.13;;;14.40;81.30;;;;;;5012818;28;20030;-76
2022/06/07 04:51:25;;;;;;;10.40;6.95;;;14.60;80.90;;;;;;5002828;28;20045;-76
2022/06/07 04:53:54;;;;;;;14.18;7.20;;;14.80;80.50;;;;;;5009074;28;20494;-75
2022/06/07 04:56:23;;;;;;;11.85;8.00;;;14.90;79.80;;;;;;5006209;28;20104;-76
2022/06/07 04:58:49;;;;;;;14.63;8.50;;;14.80;79.60;;;;;;5001998;28;20045;-76
2022/06/07 05:01:23;;;;;;;12.90;7.43;;;14.80;80.10;;;;;;5002382;28;20526;-75
2022/06/07 05:03:51;;;;;;;13.70;8.57;;;14.80;80.40;;;;;;5005285;28;21483;-76
2022/06/07 05:06:25;;;;;;;12.05;7.20;;;14.80;80.30;;;;;;4998979;28;20405;-75
2022/06/07 05:08:54;;;;;;;15.13;7.88;;;14.80;80.50;;;;;;4999224;28;20574;-75
2022/06/07 05:11:20;;;;;;;12.18;7.22;;;14.90;80.60;;;;;;4996405;28;20121;-76
2022/06/07 05:13:46;;;;;;;12.75;7.30;;;14.80;80.70;;;;;;4995559;28;20258;-76
2022/06/07 05:16:11;;;;;;;9.30;6.65;;;14.90;80.50;;;;;;4996639;28;20039;-76
2022/06/07 05:18:38;;;;;;;13.27;7.80;;;15.00;80.60;;;;;;4996938;28;20034;-77
2022/06/07 05:21:09;;;;;;;9.48;5.95;;;14.90;80.70;;;;;;4995592;28;20050;-76
2022/06/07 05:23:35;;;;;;;9.70;6.50;;;14.90;80.60;;;;;;4996931;28;20062;-77
2022/06/07 05:26:24;;;;;;;8.65;5.40;;;15.10;80.70;;;;;;4990278;28;20234;-76
2022/06/07 05:28:49;;;;;;;10.13;6.00;;;15.10;80.60;;;;;;4994662;28;20038;-77
2022/06/07 05:31:16;;;;;;;16.10;6.55;;;15.10;80.80;;;;;;5017418;28;20115;-76
2022/06/07 05:33:42;;;;;;;13.60;6.72;;;15.30;80.50;;;;;;5003174;28;20077;-77
2022/06/07 05:36:08;;;;;;;12.93;7.30;;;15.30;80.50;;;;;;5005548;28;20080;-76
2022/06/07 05:38:34;;;;;;;9.68;6.00;;;15.40;80.20;;;;;;5001521;28;20036;-75
2022/06/07 05:41:00;;;;;;;12.90;6.97;;;15.40;80.50;;;;;;5005476;28;20050;-75
2022/06/07 05:43:26;;;;;;;14.73;6.90;;;15.50;80.10;;;;;;5008006;28;20053;-76
2022/06/07 05:45:53;;;;;;;11.98;6.82;;;15.50;80.30;;;;;;5004486;28;20042;-77
2022/06/07 05:48:20;;;;;;;12.65;6.15;;;15.50;80.20;;;;;;4997108;28;20885;-76
2022/06/07 05:50:50;;;;;;;11.30;6.63;;;15.60;80.10;;;;;;4997808;28;20041;-77
2022/06/07 05:53:17;;;;;;;13.10;6.45;;;15.60;79.90;;;;;;4994008;28;20046;-77
2022/06/07 05:55:43;;;;;;;12.73;7.05;;;15.60;79.60;;;;;;5015657;28;20472;-77
2022/06/07 05:58:10;;;;;;;10.57;6.72;;;15.70;79.50;;;;;;5004384;28;20045;-74
2022/06/07 06:00:37;;;;;;;11.55;6.20;;;15.70;79.70;;;;;;5004810;28;20046;-77
2022/06/07 06:03:03;;;;;;;10.65;6.32;;;15.80;79.70;;;;;;4992890;28;20565;-76
2022/06/07 06:05:29;;;;;;;10.18;5.70;;;15.90;79.90;;;;;;5000701;28;20033;-77
2022/06/07 06:10:39;;;;;;;10.23;5.25;;;16.00;79.40;;;;;;5008855;28;20041;-74
2022/06/07 06:13:05;;;;;;;10.43;5.50;;;16.00;79.80;;;;;;5006834;28;20030;-76
2022/06/07 06:15:38;;;;;;;10.38;5.50;;;15.90;79.60;;;;;;5009063;28;20034;-77
2022/06/07 06:18:05;;;;;;;10.07;5.17;;;15.90;80.00;;;;;;5004480;28;20037;-80
2022/06/07 06:20:32;;;;;;;10.23;4.88;;;15.90;80.00;;;;;;5009095;28;20846;-83
2022/06/07 06:22:58;;;;;;;10.13;4.40;;;16.00;80.30;;;;;;5001382;28;20490;-81
2022/06/07 06:25:23;;;;;;;9.38;4.32;;;16.00;80.60;;;;;;5005818;28;20951;-81
2022/06/07 06:27:51;;;;;;;8.02;4.22;;;16.10;80.80;;;;;;5028668;28;20037;-85
2022/06/07 06:30:16;;;;;;;6.50;3.70;;;16.20;80.70;;;;;;5031010;28;20018;-84
2022/06/07 06:32:43;;;;;;;8.30;3.40;;;16.40;80.50;;;;;;5021409;28;20034;-81
2022/06/07 06:35:09;;;;;;;7.68;3.58;;;16.50;80.00;;;;;;5005209;28;20048;-81
2022/06/07 06:37:34;;;;;;;10.15;3.92;;;16.70;79.80;;;;;;5004926;28;20038;-82
2022/06/07 06:40:00;;;;;;;8.20;4.10;;;16.80;78.70;;;;;;5001320;28;20833;-83
2022/06/07 06:42:26;;;;;;;13.40;3.95;;;17.00;78.60;;;;;;5004247;28;20119;-82
2022/06/07 06:44:51;;;;;;;8.48;3.70;;;17.10;78.30;;;;;;4992008;28;20057;-83
2022/06/07 06:47:17;;;;;;;7.97;3.55;;;17.20;77.90;;;;;;4996837;28;20096;-83
2022/06/07 06:49:43;;;;;;;9.75;3.50;;;17.40;77.90;;;;;;5003942;28;20135;-83
2022/06/07 06:52:10;;;;;;;6.15;3.13;;;17.50;76.90;;;;;;5004701;28;20091;-84
2022/06/07 06:54:36;;;;;;;7.20;3.40;;;17.60;76.60;;;;;;5003019;28;20038;-83
2022/06/07 06:57:03;;;;;;;7.80;3.60;;;17.60;76.40;;;;;;4998867;28;20441;-83
2022/06/07 06:59:29;;;;;;;6.47;3.40;;;17.60;76.10;;;;;;5007278;28;20030;-83
2022/06/07 07:01:55;;;;;;;6.15;3.20;;;17.60;76.60;;;;;;5006914;28;20547;-83
2022/06/07 07:04:21;;;;;;;8.77;3.35;;;17.60;76.00;;;;;;5013216;28;20029;-83
2022/06/07 07:06:47;;;;;;;7.68;3.40;;;17.60;76.20;;;;;;5005985;28;20500;-83
2022/06/07 07:09:15;;;;;;;6.28;3.80;;;17.60;76.40;;;;;;4995726;28;20038;-82
2022/06/07 07:11:47;;;;;;;6.38;3.20;;;17.60;76.30;;;;;;5000566;28;20072;-83
2022/06/07 07:14:13;;;;;;;7.50;3.38;;;17.60;76.90;;;;;;5007907;28;20049;-83
2022/06/07 07:16:42;;;;;;;7.65;3.65;;;17.60;76.40;;;;;;5012087;28;20056;-82
2022/06/07 07:19:09;;;;;;;7.78;3.45;;;17.70;76.40;;;;;;5008675;28;20029;-85
2022/06/07 07:21:41;;;;;;;8.50;3.50;;;18.00;76.00;;;;;;5007617;28;20067;-84
2022/06/07 07:24:12;;;;;;;10.60;3.30;;;18.10;75.10;;;;;;5003748;28;20490;-84
2022/06/07 07:26:38;;;;;;;5.78;2.92;;;18.10;75.20;;;;;;4999371;28;20096;-83
2022/06/07 07:29:05;;;;;;;8.60;3.30;;;18.30;75.20;;;;;;5003431;28;20093;-85
2022/06/07 07:31:36;;;;;;;8.13;3.33;;;18.40;75.00;;;;;;5009739;28;20041;-81
2022/06/07 07:34:04;;;;;;;7.13;3.30;;;18.50;74.70;;;;;;5009259;28;20037;-83
2022/06/07 07:36:30;;;;;;;8.75;3.25;;;18.60;74.00;;;;;;5009986;28;20563;-82
2022/06/07 07:38:57;;;;;;;5.70;2.92;;;18.50;73.90;;;;;;5010086;28;20413;-86
2022/06/07 07:41:26;;;;;;;6.88;3.38;;;18.60;73.40;;;;;;5011119;28;20121;-84
2022/06/07 07:43:53;;;;;;;6.07;2.80;;;18.60;73.70;;;;;;5007744;28;20500;-82
2022/06/07 07:46:21;;;;;;;7.15;2.70;;;18.60;74.00;;;;;;5015405;28;20486;-82
2022/06/07 07:48:48;;;;;;;5.80;2.88;;;18.70;74.20;;;;;;5018738;28;20525;-83
2022/06/07 07:51:21;;;;;;;6.75;2.92;;;18.80;74.60;;;;;;5001143;28;20049;-80
2022/06/07 07:53:47;;;;;;;7.80;3.05;;;18.80;74.20;;;;;;5009776;28;20569;-76
2022/06/07 07:56:14;;;;;;;8.40;3.88;;;18.80;74.20;;;;;;5013073;28;20493;-82
2022/06/07 07:58:40;;;;;;;6.13;3.00;;;18.70;73.60;;;;;;5011912;28;20423;-83
2022/06/07 08:01:11;;;;;;;6.97;3.13;;;18.80;73.90;;;;;;5012092;28;20465;-81
2022/06/07 08:03:40;;;;;;;6.97;3.38;;;18.90;73.60;;;;;;5003555;28;20655;-81
2022/06/07 08:06:12;;;;;;;6.28;3.50;;;18.80;73.10;;;;;;5005384;28;20122;-80
2022/06/07 08:08:39;;;;;;;7.43;2.80;;;18.70;73.70;;;;;;4994955;28;20044;-80
2022/06/07 08:11:06;;;;;;;7.40;2.83;;;18.60;74.10;;;;;;5018599;28;20049;-83
2022/06/07 08:13:32;;;;;;;6.38;3.03;;;18.60;74.20;;;;;;5000122;28;20321;-82
2022/06/07 08:15:58;;;;;;;6.32;2.50;;;18.60;74.70;;;;;;5003645;28;20034;-79
2022/06/07 08:18:24;;;;;;;5.53;2.50;;;18.60;74.00;;;;;;4999306;28;20042;-81
2022/06/07 08:20:56;;;;;;;4.22;2.25;;;18.70;72.90;;;;;;5005664;28;20050;-86
2022/06/07 08:23:21;;;;;;;5.22;2.50;;;18.60;73.30;;;;;;5013318;28;20601;-84
2022/06/07 08:25:47;;;;;;;4.28;2.30;;;18.60;73.60;;;;;;4999477;28;20057;-86
2022/06/07 08:28:12;;;;;;;4.63;2.20;;;18.60;72.90;;;;;;4998543;28;20129;-82
2022/06/07 08:30:44;;;;;;;5.50;2.25;;;18.60;73.30;;;;;;4998986;28;20423;-83
2022/06/07 08:38:41;;;;;;;5.78;2.60;;;19.00;71.70;;;;;;5006741;28;20012;-82
2022/06/07 08:41:20;;;;;;;6.28;3.00;;;19.00;72.30;;;;;;5008821;28;20048;-84
2022/06/07 08:43:46;;;;;;;6.65;2.88;;;19.00;72.20;;;;;;5012696;28;20430;-85
2022/06/07 08:46:15;;;;;;;6.30;2.97;;;18.90;72.60;;;;;;5003992;28;20045;-83
2022/06/07 08:48:42;;;;;;;5.38;2.90;;;18.80;73.20;;;;;;5006840;28;20033;-81
2022/06/07 08:51:16;;;;;;;7.05;2.90;;;18.60;73.80;;;;;;5000645;28;20057;-81
2022/06/07 08:53:47;;;;;;;5.37;2.90;;;18.70;74.90;;;;;;5006690;28;20069;-81
2022/06/07 08:56:16;;;;;;;6.18;3.15;;;18.70;75.00;;;;;;5007136;28;20378;-80
2022/06/07 08:58:47;;;;;;;8.32;4.05;;;18.80;75.30;;;;;;5010950;28;20281;-82
2022/06/07 09:01:33;;;;;;;6.20;3.47;;;18.80;76.40;;;;;;5000278;28;20054;-82
2022/06/07 09:04:11;;;;;;;5.72;3.95;;;18.70;75.90;;;;;;4998022;28;20041;-79
2022/06/07 09:06:49;;;;;;;7.95;4.32;;;18.80;77.20;;;;;;5002203;28;20529;-79
2022/06/07 09:09:18;;;;;;;6.10;3.65;;;18.80;77.90;;;;;;4995221;28;20026;-81
2022/06/07 09:14:47;;;;;;;6.65;3.72;;;19.10;77.00;;;;;;5006853;28;20041;-80
2022/06/07 09:17:35;;;;;;;6.25;3.60;;;19.00;76.40;;;;;;5009373;28;20038;-79
2022/06/07 09:20:06;;;;;;;6.20;3.00;;;19.10;75.90;;;;;;5006402;28;20050;-78
2022/06/07 09:23:04;;;;;;;5.05;3.40;;;19.20;76.40;;;;;;4994205;28;20035;-79
2022/06/07 09:25:35;;;;;;;4.65;2.50;;;19.40;75.60;;;;;;4995342;28;20483;-76
2022/06/07 09:28:03;;;;;;;4.70;2.40;;;19.50;74.10;;;;;;5006514;28;20053;-81
2022/06/07 09:30:48;;;;;;;4.63;2.25;;;19.50;72.20;;;;;;5005664;28;20103;-81
2022/06/07 09:33:19;;;;;;;;;;;19.70;73.00;;;;;;5002997;28;20267;-80
2022/06/07 09:35:45;;;;;;;2.67;1.75;;;20.00;72.50;;;;;;5006809;28;20262;-79
2022/06/07 09:38:26;;;;;;;4.32;2.20;;;20.40;70.40;;;;;;4997614;28;20892;-81
2022/06/07 09:40:56;;;;;;;3.22;2.22;;;20.50;69.60;;;;;;5009991;28;20382;-78
2022/06/07 09:43:27;;;;;;;4.20;2.28;;;20.40;68.60;;;;;;5014835;28;20052;-82
2022/06/07 09:46:08;;;;;;;4.20;2.25;;;20.40;69.10;;;;;;5012950;28;20263;-79
2022/06/07 09:48:38;;;;;;;4.57;2.47;;;20.40;68.30;;;;;;5008790;28;20036;-77
2022/06/07 09:51:06;;;;;;;4.47;2.50;;;20.50;68.90;;;;;;5013849;28;20481;-79
2022/06/07 09:53:41;;;;;;;4.20;2.67;;;20.40;68.80;;;;;;5008291;28;20047;-80
2022/06/07 09:56:18;;;;;;;5.57;2.70;;;20.40;69.10;;;;;;5005021;28;20029;-78
2022/06/07 09:59:06;;;;;;;3.90;2.10;;;20.20;69.70;;;;;;5006434;28;20061;-78
2022/06/07 10:01:54;;;;;;;5.68;2.30;;;20.20;68.70;;;;;;5008670;28;20153;-80
2022/06/07 10:04:37;;;;;;;4.45;2.58;;;20.20;69.00;;;;;;5006948;28;20030;-76
2022/06/07 10:07:13;;;;;;;4.68;2.80;;;20.60;68.80;;;;;;5010784;28;20105;-78
2022/06/07 10:09:47;;;;;;;6.75;3.20;;;20.80;68.30;;;;;;5004796;28;20505;-78
2022/06/07 10:12:40;;;;;;;5.88;3.58;;;20.90;68.10;;;;;;5001411;28;20057;-79
2022/06/07 10:15:24;;;;;;;5.32;3.45;;;20.80;67.30;;;;;;5001409;28;20040;-81
2022/06/07 10:18:28;;;;;;;7.88;4.00;;;20.70;67.50;;;;;;5041317;28;20052;-80
2022/06/07 10:21:03;;;;;;;7.93;4.03;;;20.70;68.20;;;;;;5016689;28;20054;-81
2022/06/07 10:23:43;;;;;;;5.88;3.85;;;20.60;68.90;;;;;;5006171;28;20219;-82
2022/06/07 10:27:00;;;;;;;7.28;3.70;;;20.70;68.00;;;;;;5008971;28;20092;-79
2022/06/07 10:30:00;;;;;;;7.60;3.75;;;20.60;68.20;;;;;;4993891;28;20490;-79
2022/06/07 10:32:33;;;;;;;5.25;3.30;;;20.50;68.90;;;;;;5004190;28;20046;-79
2022/06/07 10:35:20;;;;;;;5.65;3.13;;;20.60;68.40;;;;;;4997203;28;20084;-78
2022/06/07 10:38:16;;;;;;;5.45;3.10;;;20.80;68.50;;;;;;4996378;28;20086;-79
2022/06/07 10:41:02;;;;;;;8.15;3.85;;;20.90;68.00;;;;;;4997869;28;20049;-80
2022/06/07 10:43:42;;;;;;;4.00;2.83;;;21.10;67.40;;;;;;4995993;28;20561;-80
2022/06/07 10:46:14;;;;;;;5.75;3.13;;;21.30;66.90;;;;;;4997676;28;20139;-83
2022/06/07 10:48:46;;;;;;;5.45;2.83;;;21.30;66.10;;;;;;5000283;28;20018;-78
2022/06/07 10:54:15;;;;;;;4.65;2.90;;;21.30;65.30;;;;;;4997885;28;20429;-85
2022/06/07 10:56:48;;;;;;;5.97;3.30;;;21.10;65.30;;;;;;5013155;28;20037;-84
2022/06/07 10:59:20;;;;;;;4.65;3.05;;;21.30;65.60;;;;;;5006869;28;20026;-82
2022/06/07 11:01:54;;;;;;;7.80;3.55;;;21.40;65.10;;;;;;4998383;28;20045;-82
2022/06/07 11:10:17;;;;;;;4.95;2.72;;;22.60;62.80;;;;;;5024813;28;20500;-84
2022/06/07 11:12:47;;;;;;;7.22;3.10;;;22.70;62.30;;;;;;5001356;28;20133;-81
2022/06/07 11:15:21;;;;;;;6.60;3.35;;;22.70;61.60;;;;;;4996746;28;20038;-80
2022/06/07 11:17:55;;;;;;;8.13;3.55;;;22.60;61.40;;;;;;5001193;28;20034;-81
2022/06/07 11:20:27;;;;;;;6.78;3.95;;;22.80;61.10;;;;;;4996321;28;20034;-78
2022/06/07 11:23:13;;;;;;;5.03;3.15;;;22.70;60.90;;;;;;4998451;28;20043;-80
2022/06/07 11:25:59;;;;;;;8.25;3.58;;;22.50;61.80;;;;;;4999007;28;20058;-86
2022/06/07 11:28:33;;;;;;;7.10;3.40;;;22.40;61.40;;;;;;4996770;28;20044;-75
2022/06/07 11:31:22;;;;;;;9.40;3.78;;;22.40;62.10;;;;;;4999492;28;20045;-87
2022/06/07 11:33:50;;;;;;;8.55;3.80;;;22.30;61.30;;;;;;4998046;28;20042;-80
2022/06/07 11:36:28;;;;;;;7.13;4.10;;;22.00;62.80;;;;;;5002467;28;20050;-77
2022/06/07 11:38:57;;;;;;;9.15;4.60;;;22.20;62.90;;;;;;4998418;28;20043;-76
2022/06/07 11:41:38;;;;;;;8.30;5.43;;;22.40;60.90;;;;;;5000087;28;20046;-81
2022/06/07 11:44:12;;;;;;;7.47;4.03;;;22.10;62.00;;;;;;4996251;28;20056;-76
2022/06/07 11:46:50;;;;;;;6.93;4.25;;;22.30;62.50;;;;;;4998229;28;20035;-76
2022/06/07 11:49:19;;;;;;;8.48;5.00;;;22.40;62.50;;;;;;5004040;28;20207;-76
2022/06/07 11:52:06;;;;;;;7.50;4.90;;;22.30;62.60;;;;;;5007892;28;20045;-77
2022/06/07 11:54:48;;;;;;;8.93;4.90;;;22.10;63.10;;;;;;4996569;28;20045;-78
2022/06/07 11:57:37;;;;;;;8.50;4.90;;;22.20;62.80;;;;;;5001823;28;20039;-76
2022/06/07 12:00:29;;;;;;;8.73;5.32;;;22.40;62.90;;;;;;4997332;28;20053;-80
2022/06/07 12:02:57;;;;;;;9.50;5.85;;;22.20;63.10;;;;;;4995117;28;20041;-76
2022/06/07 12:05:28;;;;;;;8.38;5.35;;;22.10;63.30;;;;;;5002257;28;20030;-81
2022/06/07 12:08:30;;;;;;;10.80;6.32;;;21.90;64.20;;;;;;4999870;28;20042;-84
2022/06/07 12:11:07;;;;;;;8.77;6.53;;;22.00;64.30;;;;;;5000095;28;20470;-77
2022/06/07 12:13:51;;;;;;;9.77;6.88;;;22.10;63.50;;;;;;4997789;28;20454;-79
2022/06/07 12:16:19;;;;;;;11.32;8.10;;;22.10;65.60;;;;;;4995073;28;20061;-79
2022/06/07 12:18:55;;;;;;;9.18;7.55;;;22.00;67.60;;;;;;5002220;28;20176;-84
2022/06/07 12:21:21;;;;;;;9.27;7.25;;;21.80;69.00;;;;;;5001064;28;20069;-82
2022/06/07 12:23:51;;;;;;;10.05;7.38;;;21.60;69.40;;;;;;4997100;28;20109;-81
2022/06/07 12:26:19;;;;;;;10.55;7.88;;;21.50;68.60;;;;;;4999755;28;20105;-82
2022/06/07 12:29:01;;;;;;;12.05;8.73;;;21.50;68.80;;;;;;5000874;28;20027;-82
2022/06/07 12:31:32;;;;;;;11.40;8.82;;;21.40;69.10;;;;;;5000585;28;20030;-80
2022/06/07 12:34:03;;;;;;;12.45;8.85;;;21.30;71.40;;;;;;4999887;28;20035;-80
2022/06/07 12:36:35;;;;;;;12.80;9.57;;;21.30;71.00;;;;;;4999917;28;20029;-80
2022/06/07 12:39:09;;;;;;;14.13;10.40;;;21.30;74.20;;;;;;5001114;28;20038;-81
2022/06/07 12:41:35;;;;;;;13.25;9.02;;;21.40;72.90;;;;;;4992898;28;20042;-80
2022/06/07 12:44:02;;;;;;;12.60;10.27;;;21.40;73.50;;;;;;4998585;28;20436;-84
2022/06/07 12:46:42;;;;;;;11.40;9.80;;;21.60;73.80;;;;;;4996736;28;20033;-83
2022/06/07 12:49:26;;;;;;;8.75;7.78;;;21.70;72.60;;;;;;5002665;28;20135;-81
2022/06/07 12:52:04;;;;;;;10.23;8.52;;;21.90;71.10;;;;;;4995293;28;20144;-82
2022/06/07 12:54:33;;;;;;;8.55;6.53;;;22.00;71.90;;;;;;4997695;28;20480;-80
2022/06/07 12:57:04;;;;;;;11.07;8.43;;;22.20;69.90;;;;;;5000879;28;20029;-83
2022/06/07 12:59:40;;;;;;;12.15;8.18;;;22.20;70.40;;;;;;5005231;28;20081;-82
2022/06/07 13:02:16;;;;;;;11.18;8.10;;;22.30;68.60;;;;;;5001042;28;20514;-81
2022/06/07 13:04:51;;;;;;;12.57;9.57;;;22.60;66.80;;;;;;5000718;28;20125;-81
2022/06/07 13:07:47;;;;;;;10.88;9.68;;;22.40;68.10;;;;;;5010222;28;20034;-80
2022/06/07 13:10:17;;;;;;;10.75;9.57;;;22.30;66.70;;;;;;5009490;28;20041;-80
2022/06/07 13:12:46;;;;;;;11.98;9.10;;;22.00;67.80;;;;;;4995522;28;20065;-80
2022/06/07 13:15:18;;;;;;;11.32;9.70;;;22.00;68.60;;;;;;5000608;28;20045;-79
2022/06/07 13:17:57;;;;;;;10.77;9.40;;;21.50;68.30;;;;;;5003669;28;20460;-79
2022/06/07 13:20:33;;;;;;;10.90;9.80;;;21.60;68.70;;;;;;5011291;28;20093;-82
2022/06/07 13:23:00;;;;;;;10.13;9.02;;;21.50;69.10;;;;;;5018366;28;20098;-80
2022/06/07 13:25:31;;;;;;;9.35;8.20;;;21.30;69.40;;;;;;5012586;28;20125;-83
2022/06/07 13:28:19;;;;;;;9.80;8.68;;;21.10;69.30;;;;;;5003367;28;20070;-81
2022/06/07 13:30:46;;;;;;;9.45;8.15;;;21.00;69.90;;;;;;5019345;28;20126;-85